createdAt,value
2019-06-10T00:01:32.794Z,3.5
2019-06-10T00:11:44.373Z,2.8
2019-06-10T00:21:54.502Z,2.8
2019-06-10T00:32:08.479Z,4.4
2019-06-10T00:42:15.564Z,4.7
2019-06-10T00:52:21.731Z,2.5
2019-06-10T01:02:37.033Z,3.5
2019-06-10T01:12:46.139Z,2
2019-06-10T01:22:53.885Z,3.4
2019-06-10T01:33:03.972Z,3.5
2019-06-10T01:43:18.437Z,3.9
2019-06-10T01:53:22.685Z,5.4
2019-06-10T02:03:45.890Z,4.5
2019-06-10T02:13:54.672Z,3.4
2019-06-10T02:24:03.978Z,2.6
2019-06-10T02:34:26.979Z,4.2
2019-06-10T02:37:31.180Z,2.7
2019-06-10T02:40:31.524Z,2.6
2019-06-10T02:43:08.851Z,3.4
2019-06-10T02:53:21.070Z,2.6
2019-06-10T03:03:36.835Z,4
2019-06-10T03:06:39.742Z,3.8
2019-06-10T03:09:18.787Z,3.2
2019-06-10T03:19:14.255Z,4.6
2019-06-10T03:29:28.337Z,3
2019-06-10T03:39:34.199Z,5.2
2019-06-10T03:49:56.327Z,3.6
2019-06-10T04:00:13.852Z,5.1
2019-06-10T04:10:09.104Z,4.5
2019-06-10T04:20:28.120Z,4.3
2019-06-10T04:30:29.455Z,5.2
2019-06-10T04:40:43.224Z,5
2019-06-10T04:51:17.197Z,4.8
2019-06-10T04:53:47.139Z,3.8
2019-06-10T05:03:59.485Z,2.3
2019-06-10T05:14:07.923Z,3.5
2019-06-10T05:24:15.801Z,2.7
2019-06-10T05:34:29.918Z,3
2019-06-10T05:44:34.870Z,5.2
2019-06-10T05:54:47.237Z,3.2
2019-06-10T06:04:57.366Z,2.6
2019-06-10T06:15:08.844Z,2.2
2019-06-10T06:25:16.981Z,4
2019-06-10T06:35:26.520Z,2.6
2019-06-10T06:45:38.887Z,3
2019-06-10T06:55:48.820Z,2.9
2019-06-10T07:06:02.903Z,1.5
2019-06-10T07:16:17.964Z,2.3
2019-06-10T07:26:25.914Z,3.7
2019-06-10T07:36:37.204Z,1.5
2019-06-10T07:46:39.456Z,1.9
2019-06-10T07:56:53.908Z,1.5
2019-06-10T08:06:59.230Z,3.1
2019-06-10T08:17:16.056Z,2.4
2019-06-10T08:22:31.029Z,1.7
2019-06-10T08:25:12.608Z,3.1
2019-06-10T08:35:48.220Z,2.4
2019-06-10T08:38:18.622Z,2.4
2019-06-10T08:48:26.919Z,3.3
2019-06-10T08:58:35.542Z,2.8
2019-06-10T09:08:51.306Z,1.8
2019-06-10T09:18:59.217Z,3.1
2019-06-10T09:29:08.603Z,2.6
2019-06-10T09:39:23.165Z,2.7
2019-06-10T09:49:33.703Z,2.7
2019-06-10T09:59:36.459Z,2.4
2019-06-10T10:09:52.653Z,3.1
2019-06-10T10:19:57.196Z,3.6
2019-06-10T10:30:04.638Z,3
2019-06-10T10:40:19.097Z,2.4
2019-06-10T10:50:35.629Z,2.5
2019-06-10T11:00:37.702Z,3.3
2019-06-10T11:10:52.465Z,2.1
2019-06-10T11:21:04.900Z,3.8
2019-06-10T11:31:09.074Z,3.8
2019-06-10T11:41:23.883Z,4.2
2019-06-10T11:51:36.792Z,4
2019-06-10T12:01:45.615Z,1.8
2019-06-10T12:12:02.425Z,1.8
2019-06-10T12:20:03.090Z,2.2
2019-06-10T12:30:05.206Z,3.7
2019-06-10T12:40:17.063Z,2.6
2019-06-10T12:50:38.222Z,2.4
2019-06-10T13:00:50.090Z,2.5
2019-06-10T13:10:44.863Z,4.6
2019-06-10T13:21:02.362Z,3.6
2019-06-10T13:30:59.479Z,4.8
2019-06-10T13:41:16.552Z,3.8
2019-06-10T13:51:25.671Z,3.2
2019-06-10T14:01:39.742Z,3.1
2019-06-10T14:11:46.940Z,2.7
2019-06-10T14:21:56.238Z,2.6
2019-06-10T14:32:26.031Z,3
2019-06-10T14:35:09.877Z,2.1
2019-06-10T14:45:16.785Z,3.5
2019-06-10T14:55:28.198Z,5.1
2019-06-10T15:05:43.549Z,2.4
2019-06-10T15:15:48.153Z,4.2
2019-06-10T15:26:21.899Z,1.6
2019-06-10T15:29:02.936Z,2.2
2019-06-10T15:39:06.249Z,3
2019-06-10T15:49:25.778Z,1.3
2019-06-10T15:59:24.841Z,1.1
2019-06-10T16:09:35.733Z,1.2
2019-06-10T16:19:48.755Z,1.1
2019-06-10T16:29:58.045Z,1.5
2019-06-10T16:40:06.015Z,1.2
2019-06-10T16:50:17.362Z,1.3
2019-06-10T17:00:28.058Z,1.3
2019-06-10T17:10:43.350Z,1.9
2019-06-10T17:20:49.277Z,1.6
2019-06-10T17:31:07.361Z,1
2019-06-10T17:41:13.486Z,1.4
2019-06-10T17:51:28.090Z,0.9
2019-06-10T18:01:35.710Z,1.4
2019-06-10T18:11:43.549Z,1.4
2019-06-10T18:21:55.483Z,0.3
2019-06-10T18:32:07.866Z,1.3
2019-06-10T18:42:16.664Z,0.2
2019-06-10T18:52:25.918Z,1.3
2019-06-10T19:02:38.847Z,1.1
2019-06-10T19:12:46.581Z,1.4
2019-06-10T19:22:56.724Z,2.2
2019-06-10T19:33:16.985Z,1.3
2019-06-10T19:43:17.462Z,1.4
2019-06-10T19:53:29.999Z,1.8
2019-06-10T20:03:39.858Z,1.4
2019-06-10T20:13:53.252Z,0.3
2019-06-10T20:24:04.103Z,1
2019-06-10T20:34:17.905Z,1.4
2019-06-10T20:44:26.284Z,1.4
2019-06-10T20:54:38.540Z,1
2019-06-10T21:04:47.108Z,1.4
2019-06-10T21:14:54.794Z,0.8
2019-06-10T21:25:13.441Z,1.8
2019-06-10T21:35:26.461Z,1.4
2019-06-10T21:45:32.907Z,0.6
2019-06-10T21:55:42.046Z,1.6
2019-06-10T22:05:53.955Z,1.1
2019-06-10T22:16:06.084Z,1.8
2019-06-10T22:26:16.497Z,1
2019-06-10T22:36:27.779Z,1.5
2019-06-10T22:46:36.751Z,0.3
2019-06-10T22:56:45.218Z,2.1
2019-06-10T23:06:59.603Z,4.2
2019-06-10T23:17:06.870Z,2.9
2019-06-10T23:27:22.438Z,1.5
2019-06-10T23:37:36.511Z,1.6
2019-06-10T23:47:43.407Z,1.5
2019-06-10T23:57:54.828Z,2.3
